sensor_id;sensor_type;location;lat;lon;timestamp;temperature;humidity
44573;DHT22;31762;45.420;10.072;2022-08-25T00:03:13;25.20;99.90
44573;DHT22;31762;45.420;10.072;2022-08-25T00:08:16;25.30;99.90
44573;DHT22;31762;45.420;10.072;2022-08-25T00:13:17;25.20;99.90
44573;DHT22;31762;45.420;10.072;2022-08-25T00:18:19;24.80;99.90
44573;DHT22;31762;45.420;10.072;2022-08-25T00:23:22;25.00;99.90
44573;DHT22;31762;45.420;10.072;2022-08-25T00:28:24;24.70;99.90
44573;DHT22;31762;45.420;10.072;2022-08-25T00:33:26;24.60;99.90
44573;DHT22;31762;45.420;10.072;2022-08-25T00:38:28;24.60;99.90
44573;DHT22;31762;45.420;10.072;2022-08-25T00:43:34;24.60;99.90
44573;DHT22;31762;45.420;10.072;2022-08-25T00:48:37;24.50;99.90
44573;DHT22;31762;45.420;10.072;2022-08-25T00:53:40;24.70;99.90
44573;DHT22;31762;45.420;10.072;2022-08-25T00:58:42;24.90;99.90
44573;DHT22;31762;45.420;10.072;2022-08-25T01:03:45;24.40;99.90
44573;DHT22;31762;45.420;10.072;2022-08-25T01:08:47;24.20;99.90
44573;DHT22;31762;45.420;10.072;2022-08-25T01:13:53;24.30;99.90
44573;DHT22;31762;45.420;10.072;2022-08-25T01:18:57;24.40;99.90
44573;DHT22;31762;45.420;10.072;2022-08-25T01:23:59;24.80;99.90
44573;DHT22;31762;45.420;10.072;2022-08-25T01:29:04;24.80;99.90
44573;DHT22;31762;45.420;10.072;2022-08-25T01:34:07;24.50;99.90
44573;DHT22;31762;45.420;10.072;2022-08-25T01:39:10;24.40;99.90
44573;DHT22;31762;45.420;10.072;2022-08-25T01:44:13;24.70;99.90
44573;DHT22;31762;45.420;10.072;2022-08-25T01:49:17;24.70;99.90
44573;DHT22;31762;45.420;10.072;2022-08-25T01:54:18;24.60;99.90
44573;DHT22;31762;45.420;10.072;2022-08-25T01:59:21;24.30;99.90
44573;DHT22;31762;45.420;10.072;2022-08-25T02:04:25;24.70;99.90
44573;DHT22;31762;45.420;10.072;2022-08-25T02:09:28;24.50;99.90
44573;DHT22;31762;45.420;10.072;2022-08-25T02:14:30;24.20;99.90
44573;DHT22;31762;45.420;10.072;2022-08-25T02:19:32;24.20;99.90
44573;DHT22;31762;45.420;10.072;2022-08-25T02:24:34;24.30;99.90
44573;DHT22;31762;45.420;10.072;2022-08-25T02:29:36;24.10;99.90
44573;DHT22;31762;45.420;10.072;2022-08-25T02:34:37;23.80;99.90
44573;DHT22;31762;45.420;10.072;2022-08-25T02:39:39;23.60;99.90
44573;DHT22;31762;45.420;10.072;2022-08-25T02:44:41;23.80;99.90
44573;DHT22;31762;45.420;10.072;2022-08-25T02:49:43;23.80;99.90
44573;DHT22;31762;45.420;10.072;2022-08-25T02:54:44;23.80;99.90
44573;DHT22;31762;45.420;10.072;2022-08-25T02:59:46;24.00;99.90
44573;DHT22;31762;45.420;10.072;2022-08-25T03:04:48;24.10;99.90
44573;DHT22;31762;45.420;10.072;2022-08-25T03:09:50;24.00;99.90
44573;DHT22;31762;45.420;10.072;2022-08-25T03:14:52;23.90;99.90
44573;DHT22;31762;45.420;10.072;2022-08-25T03:19:54;23.70;99.90
44573;DHT22;31762;45.420;10.072;2022-08-25T03:24:56;24.10;99.90
44573;DHT22;31762;45.420;10.072;2022-08-25T03:29:58;23.90;99.90
44573;DHT22;31762;45.420;10.072;2022-08-25T03:35:00;24.00;99.90
44573;DHT22;31762;45.420;10.072;2022-08-25T03:40:04;23.80;99.90
44573;DHT22;31762;45.420;10.072;2022-08-25T03:45:08;23.90;99.90
44573;DHT22;31762;45.420;10.072;2022-08-25T03:50:10;23.90;99.90
44573;DHT22;31762;45.420;10.072;2022-08-25T03:55:13;23.80;99.90
44573;DHT22;31762;45.420;10.072;2022-08-25T04:00:15;23.80;99.90
44573;DHT22;31762;45.420;10.072;2022-08-25T04:05:17;23.60;99.90
44573;DHT22;31762;45.420;10.072;2022-08-25T04:10:20;23.60;99.90
44573;DHT22;31762;45.420;10.072;2022-08-25T04:21:20;23.30;99.90
44573;DHT22;31762;45.420;10.072;2022-08-25T04:26:26;23.50;99.90
44573;DHT22;31762;45.420;10.072;2022-08-25T04:31:29;23.50;99.90
44573;DHT22;31762;45.420;10.072;2022-08-25T04:36:31;23.60;99.90
44573;DHT22;31762;45.420;10.072;2022-08-25T04:41:33;23.80;99.90
44573;DHT22;31762;45.420;10.072;2022-08-25T04:46:37;23.50;99.90
44573;DHT22;31762;45.420;10.072;2022-08-25T04:51:40;23.60;99.90
44573;DHT22;31762;45.420;10.072;2022-08-25T04:56:42;23.40;99.90
44573;DHT22;31762;45.420;10.072;2022-08-25T05:01:44;23.30;99.90
44573;DHT22;31762;45.420;10.072;2022-08-25T05:06:50;23.20;99.90
44573;DHT22;31762;45.420;10.072;2022-08-25T05:11:52;23.20;99.90
44573;DHT22;31762;45.420;10.072;2022-08-25T05:16:55;23.40;99.90
44573;DHT22;31762;45.420;10.072;2022-08-25T05:21:57;23.60;99.90
44573;DHT22;31762;45.420;10.072;2022-08-25T05:26:59;24.00;99.90
44573;DHT22;31762;45.420;10.072;2022-08-25T05:32:01;24.20;99.90
44573;DHT22;31762;45.420;10.072;2022-08-25T05:37:03;24.40;99.90
44573;DHT22;31762;45.420;10.072;2022-08-25T05:42:05;24.20;99.90
44573;DHT22;31762;45.420;10.072;2022-08-25T05:47:06;24.40;99.90
44573;DHT22;31762;45.420;10.072;2022-08-25T05:52:08;24.40;99.90
44573;DHT22;31762;45.420;10.072;2022-08-25T05:57:10;24.50;99.90
44573;DHT22;31762;45.420;10.072;2022-08-25T06:02:12;24.60;99.90
44573;DHT22;31762;45.420;10.072;2022-08-25T06:07:14;24.90;99.90
44573;DHT22;31762;45.420;10.072;2022-08-25T06:12:16;25.30;99.90
44573;DHT22;31762;45.420;10.072;2022-08-25T06:17:18;25.50;99.90
44573;DHT22;31762;45.420;10.072;2022-08-25T06:22:20;25.00;99.90
44573;DHT22;31762;45.420;10.072;2022-08-25T06:27:22;25.50;99.90
44573;DHT22;31762;45.420;10.072;2022-08-25T06:32:24;26.00;99.90
44573;DHT22;31762;45.420;10.072;2022-08-25T06:37:26;26.00;99.90
44573;DHT22;31762;45.420;10.072;2022-08-25T06:42:28;25.90;99.90
44573;DHT22;31762;45.420;10.072;2022-08-25T06:47:29;26.00;99.90
44573;DHT22;31762;45.420;10.072;2022-08-25T06:52:32;25.80;99.90
44573;DHT22;31762;45.420;10.072;2022-08-25T06:57:33;26.30;99.90
44573;DHT22;31762;45.420;10.072;2022-08-25T07:02:36;26.50;99.90
44573;DHT22;31762;45.420;10.072;2022-08-25T07:07:38;26.60;99.90
44573;DHT22;31762;45.420;10.072;2022-08-25T07:12:44;26.80;99.90
44573;DHT22;31762;45.420;10.072;2022-08-25T07:17:47;26.80;99.90
44573;DHT22;31762;45.420;10.072;2022-08-25T07:22:49;27.00;99.90
44573;DHT22;31762;45.420;10.072;2022-08-25T07:27:51;27.50;99.90
44573;DHT22;31762;45.420;10.072;2022-08-25T07:32:59;27.80;99.90
44573;DHT22;31762;45.420;10.072;2022-08-25T07:38:07;27.90;99.90
44573;DHT22;31762;45.420;10.072;2022-08-25T07:43:13;28.10;99.90
44573;DHT22;31762;45.420;10.072;2022-08-25T07:48:15;28.00;99.90
44573;DHT22;31762;45.420;10.072;2022-08-25T07:53:19;28.10;99.90
44573;DHT22;31762;45.420;10.072;2022-08-25T07:58:23;28.30;99.90
44573;DHT22;31762;45.420;10.072;2022-08-25T08:03:25;28.40;99.90
44573;DHT22;31762;45.420;10.072;2022-08-25T08:08:47;28.40;99.90
44573;DHT22;31762;45.420;10.072;2022-08-25T08:13:50;28.70;99.90
44573;DHT22;31762;45.420;10.072;2022-08-25T08:18:58;28.70;99.90
44573;DHT22;31762;45.420;10.072;2022-08-25T08:24:01;29.00;99.90
44573;DHT22;31762;45.420;10.072;2022-08-25T08:29:15;29.20;99.90
44573;DHT22;31762;45.420;10.072;2022-08-25T08:34:17;29.60;99.90
44573;DHT22;31762;45.420;10.072;2022-08-25T08:39:19;29.60;99.90
44573;DHT22;31762;45.420;10.072;2022-08-25T08:50:03;30.00;99.90
44573;DHT22;31762;45.420;10.072;2022-08-25T08:55:33;29.50;99.90
44573;DHT22;31762;45.420;10.072;2022-08-25T09:00:38;30.00;99.90
44573;DHT22;31762;45.420;10.072;2022-08-25T09:05:47;30.20;99.90
44573;DHT22;31762;45.420;10.072;2022-08-25T09:11:11;30.00;99.90
44573;DHT22;31762;45.420;10.072;2022-08-25T09:32:55;30.30;99.90
44573;DHT22;31762;45.420;10.072;2022-08-25T09:38:06;31.30;99.90
44573;DHT22;31762;45.420;10.072;2022-08-25T09:43:22;30.90;99.90
44573;DHT22;31762;45.420;10.072;2022-08-25T09:48:28;31.10;99.90
44573;DHT22;31762;45.420;10.072;2022-08-25T09:53:31;31.30;99.90
44573;DHT22;31762;45.420;10.072;2022-08-25T09:58:34;31.50;99.90
44573;DHT22;31762;45.420;10.072;2022-08-25T10:03:36;31.40;99.90
44573;DHT22;31762;45.420;10.072;2022-08-25T10:08:50;31.50;99.90
44573;DHT22;31762;45.420;10.072;2022-08-25T10:14:14;31.80;99.90
44573;DHT22;31762;45.420;10.072;2022-08-25T10:19:27;31.80;99.90
44573;DHT22;31762;45.420;10.072;2022-08-25T10:24:31;32.00;99.90
44573;DHT22;31762;45.420;10.072;2022-08-25T10:46:39;32.10;99.90
44573;DHT22;31762;45.420;10.072;2022-08-25T10:57:43;32.00;99.90
44573;DHT22;31762;45.420;10.072;2022-08-25T11:13:49;32.30;99.90
44573;DHT22;31762;45.420;10.072;2022-08-25T11:19:02;33.40;99.90
44573;DHT22;31762;45.420;10.072;2022-08-25T11:29:38;32.80;99.90
44573;DHT22;31762;45.420;10.072;2022-08-25T11:34:42;32.90;99.90
44573;DHT22;31762;45.420;10.072;2022-08-25T11:40:19;33.10;99.90
44573;DHT22;31762;45.420;10.072;2022-08-25T11:51:12;33.10;99.90
44573;DHT22;31762;45.420;10.072;2022-08-25T11:56:35;33.10;99.90
44573;DHT22;31762;45.420;10.072;2022-08-25T12:17:42;33.90;99.90
44573;DHT22;31762;45.420;10.072;2022-08-25T12:22:53;33.80;99.90
44573;DHT22;31762;45.420;10.072;2022-08-25T12:33:51;34.20;99.90
44573;DHT22;31762;45.420;10.072;2022-08-25T12:39:16;34.60;99.90
44573;DHT22;31762;45.420;10.072;2022-08-25T12:44:33;34.10;99.90
44573;DHT22;31762;45.420;10.072;2022-08-25T12:49:35;34.30;99.90
44573;DHT22;31762;45.420;10.072;2022-08-25T12:54:57;33.70;99.90
44573;DHT22;31762;45.420;10.072;2022-08-25T13:00:44;34.10;99.20
44573;DHT22;31762;45.420;10.072;2022-08-25T13:10:57;35.00;98.80
44573;DHT22;31762;45.420;10.072;2022-08-25T13:16:08;35.10;98.10
44573;DHT22;31762;45.420;10.072;2022-08-25T13:21:18;34.20;98.80
44573;DHT22;31762;45.420;10.072;2022-08-25T13:26:26;34.00;98.50
44573;DHT22;31762;45.420;10.072;2022-08-25T13:31:28;34.40;99.20
44573;DHT22;31762;45.420;10.072;2022-08-25T13:36:44;33.80;97.80
44573;DHT22;31762;45.420;10.072;2022-08-25T13:42:00;34.60;97.30
44573;DHT22;31762;45.420;10.072;2022-08-25T13:47:15;34.80;98.00
44573;DHT22;31762;45.420;10.072;2022-08-25T13:52:26;33.50;97.90
44573;DHT22;31762;45.420;10.072;2022-08-25T13:57:30;34.50;96.40
44573;DHT22;31762;45.420;10.072;2022-08-25T14:02:48;34.50;96.70
44573;DHT22;31762;45.420;10.072;2022-08-25T14:07:55;35.00;96.10
44573;DHT22;31762;45.420;10.072;2022-08-25T14:18:31;34.10;96.80
44573;DHT22;31762;45.420;10.072;2022-08-25T14:23:37;33.90;97.20
44573;DHT22;31762;45.420;10.072;2022-08-25T14:28:39;33.70;97.60
44573;DHT22;31762;45.420;10.072;2022-08-25T14:33:47;34.40;97.00
44573;DHT22;31762;45.420;10.072;2022-08-25T14:38:51;34.10;97.60
44573;DHT22;31762;45.420;10.072;2022-08-25T14:43:55;34.30;97.30
44573;DHT22;31762;45.420;10.072;2022-08-25T14:48:59;34.80;97.00
44573;DHT22;31762;45.420;10.072;2022-08-25T14:54:06;34.70;95.40
44573;DHT22;31762;45.420;10.072;2022-08-25T14:59:09;34.40;94.80
44573;DHT22;31762;45.420;10.072;2022-08-25T15:04:18;34.20;94.50
44573;DHT22;31762;45.420;10.072;2022-08-25T15:09:21;34.60;94.40
44573;DHT22;31762;45.420;10.072;2022-08-25T15:14:24;34.10;95.20
44573;DHT22;31762;45.420;10.072;2022-08-25T15:19:34;33.70;95.40
44573;DHT22;31762;45.420;10.072;2022-08-25T15:24:35;34.40;95.70
44573;DHT22;31762;45.420;10.072;2022-08-25T15:29:40;33.80;96.40
44573;DHT22;31762;45.420;10.072;2022-08-25T15:34:42;33.70;95.90
44573;DHT22;31762;45.420;10.072;2022-08-25T15:39:44;33.00;96.10
44573;DHT22;31762;45.420;10.072;2022-08-25T15:44:47;32.50;96.70
44573;DHT22;31762;45.420;10.072;2022-08-25T15:50:08;32.10;97.00
44573;DHT22;31762;45.420;10.072;2022-08-25T15:55:11;32.40;97.00
44573;DHT22;31762;45.420;10.072;2022-08-25T16:00:14;32.30;96.50
44573;DHT22;31762;45.420;10.072;2022-08-25T16:05:17;32.20;97.50
44573;DHT22;31762;45.420;10.072;2022-08-25T16:10:26;32.10;97.40
44573;DHT22;31762;45.420;10.072;2022-08-25T16:15:28;31.90;96.70
44573;DHT22;31762;45.420;10.072;2022-08-25T16:20:31;32.10;97.80
44573;DHT22;31762;45.420;10.072;2022-08-25T16:25:41;31.90;96.60
44573;DHT22;31762;45.420;10.072;2022-08-25T16:30:48;31.70;95.90
44573;DHT22;31762;45.420;10.072;2022-08-25T16:36:12;31.90;96.70
44573;DHT22;31762;45.420;10.072;2022-08-25T16:41:20;31.70;97.60
44573;DHT22;31762;45.420;10.072;2022-08-25T16:46:22;31.50;97.60
44573;DHT22;31762;45.420;10.072;2022-08-25T16:51:24;31.50;98.40
44573;DHT22;31762;45.420;10.072;2022-08-25T16:56:32;31.50;98.70
44573;DHT22;31762;45.420;10.072;2022-08-25T17:01:35;31.30;98.30
44573;DHT22;31762;45.420;10.072;2022-08-25T17:06:40;31.40;98.80
44573;DHT22;31762;45.420;10.072;2022-08-25T17:11:50;31.30;98.00
44573;DHT22;31762;45.420;10.072;2022-08-25T17:16:54;31.10;98.20
44573;DHT22;31762;45.420;10.072;2022-08-25T17:21:56;31.10;98.40
44573;DHT22;31762;45.420;10.072;2022-08-25T17:26:59;31.10;99.10
44573;DHT22;31762;45.420;10.072;2022-08-25T17:32:03;31.10;99.90
44573;DHT22;31762;45.420;10.072;2022-08-25T17:37:05;30.90;99.90
44573;DHT22;31762;45.420;10.072;2022-08-25T17:42:07;30.90;99.90
44573;DHT22;31762;45.420;10.072;2022-08-25T17:47:09;30.80;99.90
44573;DHT22;31762;45.420;10.072;2022-08-25T17:52:11;30.90;99.90
44573;DHT22;31762;45.420;10.072;2022-08-25T17:57:13;30.80;99.90
44573;DHT22;31762;45.420;10.072;2022-08-25T18:02:15;30.60;99.90
44573;DHT22;31762;45.420;10.072;2022-08-25T18:07:17;30.60;99.90
44573;DHT22;31762;45.420;10.072;2022-08-25T18:12:19;30.50;99.90
44573;DHT22;31762;45.420;10.072;2022-08-25T18:17:21;30.10;99.90
44573;DHT22;31762;45.420;10.072;2022-08-25T18:22:23;30.10;99.90
44573;DHT22;31762;45.420;10.072;2022-08-25T18:27:26;29.90;99.90
44573;DHT22;31762;45.420;10.072;2022-08-25T18:32:28;29.80;99.90
44573;DHT22;31762;45.420;10.072;2022-08-25T18:37:29;29.60;99.90
44573;DHT22;31762;45.420;10.072;2022-08-25T18:42:31;29.50;99.90
44573;DHT22;31762;45.420;10.072;2022-08-25T18:47:33;29.80;99.90
44573;DHT22;31762;45.420;10.072;2022-08-25T18:52:35;29.80;99.90
44573;DHT22;31762;45.420;10.072;2022-08-25T18:57:37;29.60;99.90
44573;DHT22;31762;45.420;10.072;2022-08-25T19:02:45;29.10;99.90
44573;DHT22;31762;45.420;10.072;2022-08-25T19:07:48;28.90;99.90
44573;DHT22;31762;45.420;10.072;2022-08-25T19:12:52;28.80;99.90
44573;DHT22;31762;45.420;10.072;2022-08-25T19:17:57;28.90;99.90
44573;DHT22;31762;45.420;10.072;2022-08-25T19:23:00;28.80;99.90
44573;DHT22;31762;45.420;10.072;2022-08-25T19:28:06;28.80;99.90
44573;DHT22;31762;45.420;10.072;2022-08-25T19:33:12;28.90;99.90
44573;DHT22;31762;45.420;10.072;2022-08-25T19:38:20;28.70;99.90
44573;DHT22;31762;45.420;10.072;2022-08-25T19:43:36;28.70;99.90
44573;DHT22;31762;45.420;10.072;2022-08-25T19:48:39;28.80;99.90
44573;DHT22;31762;45.420;10.072;2022-08-25T19:53:41;28.90;99.90
44573;DHT22;31762;45.420;10.072;2022-08-25T19:58:43;28.70;99.90
44573;DHT22;31762;45.420;10.072;2022-08-25T20:03:45;28.60;99.90
44573;DHT22;31762;45.420;10.072;2022-08-25T20:08:47;28.40;99.90
44573;DHT22;31762;45.420;10.072;2022-08-25T20:13:59;28.20;99.90
44573;DHT22;31762;45.420;10.072;2022-08-25T20:19:05;28.10;99.90
44573;DHT22;31762;45.420;10.072;2022-08-25T20:24:09;28.00;99.90
44573;DHT22;31762;45.420;10.072;2022-08-25T20:29:11;27.90;99.90
44573;DHT22;31762;45.420;10.072;2022-08-25T20:34:13;27.70;99.90
44573;DHT22;31762;45.420;10.072;2022-08-25T20:39:15;27.60;99.90
44573;DHT22;31762;45.420;10.072;2022-08-25T20:44:17;27.50;99.90
44573;DHT22;31762;45.420;10.072;2022-08-25T20:49:23;27.50;99.90
44573;DHT22;31762;45.420;10.072;2022-08-25T20:54:26;27.50;99.90
44573;DHT22;31762;45.420;10.072;2022-08-25T20:59:28;27.40;99.90
44573;DHT22;31762;45.420;10.072;2022-08-25T21:04:30;27.30;99.90
44573;DHT22;31762;45.420;10.072;2022-08-25T21:09:33;27.00;99.90
44573;DHT22;31762;45.420;10.072;2022-08-25T21:14:37;26.70;99.90
44573;DHT22;31762;45.420;10.072;2022-08-25T21:19:40;26.90;99.90
44573;DHT22;31762;45.420;10.072;2022-08-25T21:24:42;27.20;99.90
44573;DHT22;31762;45.420;10.072;2022-08-25T21:29:45;27.10;99.90
44573;DHT22;31762;45.420;10.072;2022-08-25T21:34:55;27.20;99.90
44573;DHT22;31762;45.420;10.072;2022-08-25T21:39:59;26.90;99.90
44573;DHT22;31762;45.420;10.072;2022-08-25T21:45:01;27.00;99.90
44573;DHT22;31762;45.420;10.072;2022-08-25T21:50:03;27.00;99.90
44573;DHT22;31762;45.420;10.072;2022-08-25T21:55:05;27.00;99.90
44573;DHT22;31762;45.420;10.072;2022-08-25T22:00:10;26.80;99.90
44573;DHT22;31762;45.420;10.072;2022-08-25T22:05:12;26.70;99.90
44573;DHT22;31762;45.420;10.072;2022-08-25T22:10:16;26.70;99.90
44573;DHT22;31762;45.420;10.072;2022-08-25T22:15:18;27.10;99.90
44573;DHT22;31762;45.420;10.072;2022-08-25T22:20:20;26.90;99.90
44573;DHT22;31762;45.420;10.072;2022-08-25T22:25:22;26.70;99.90
44573;DHT22;31762;45.420;10.072;2022-08-25T22:30:26;26.60;99.90
44573;DHT22;31762;45.420;10.072;2022-08-25T22:35:31;26.70;99.90
44573;DHT22;31762;45.420;10.072;2022-08-25T22:40:35;27.00;99.90
44573;DHT22;31762;45.420;10.072;2022-08-25T22:45:37;26.80;99.90
44573;DHT22;31762;45.420;10.072;2022-08-25T22:50:38;26.80;99.90
44573;DHT22;31762;45.420;10.072;2022-08-25T22:55:42;27.00;99.90
44573;DHT22;31762;45.420;10.072;2022-08-25T23:00:46;27.00;99.90
44573;DHT22;31762;45.420;10.072;2022-08-25T23:05:49;27.20;99.90
44573;DHT22;31762;45.420;10.072;2022-08-25T23:10:52;27.10;99.90
44573;DHT22;31762;45.420;10.072;2022-08-25T23:15:55;27.00;99.90
44573;DHT22;31762;45.420;10.072;2022-08-25T23:20:57;27.20;99.90
44573;DHT22;31762;45.420;10.072;2022-08-25T23:25:58;26.90;99.90
44573;DHT22;31762;45.420;10.072;2022-08-25T23:31:08;27.00;99.90
44573;DHT22;31762;45.420;10.072;2022-08-25T23:36:13;26.60;99.90
44573;DHT22;31762;45.420;10.072;2022-08-25T23:41:20;26.40;99.90
44573;DHT22;31762;45.420;10.072;2022-08-25T23:46:24;26.50;99.90
44573;DHT22;31762;45.420;10.072;2022-08-25T23:51:28;26.80;99.90
44573;DHT22;31762;45.420;10.072;2022-08-25T23:56:33;26.70;99.90
